Time;durP1;ratioP1;P1;durP2;ratioP2;P2;SDS_P1;SDS_P2;PMS_P1;PMS_P2;Temp;Humidity;BMP_temperature;BMP_pressure;BME280_temperature;BME280_humidity;BME280_pressure;Samples;Min_cycle;Max_cycle;Signal;HPM_P1;HPM_P2
2023/10/03 00:00:58;;;;;;;28.37;14.37;;;20.30;99.90;;;;;;5053723;28;20444;-73
2023/10/03 00:03:24;;;;;;;39.47;16.60;;;20.40;99.90;;;;;;5053709;28;20302;-73
2023/10/03 00:05:51;;;;;;;28.80;13.20;;;20.40;99.90;;;;;;5053531;28;20492;-73
2023/10/03 00:08:18;;;;;;;35.90;16.07;;;20.30;99.90;;;;;;5052367;28;20965;-73
2023/10/03 00:10:45;;;;;;;42.03;18.40;;;20.30;99.90;;;;;;5052129;28;20477;-72
2023/10/03 00:13:11;;;;;;;46.90;22.50;;;20.10;99.90;;;;;;5052288;28;20505;-73
2023/10/03 00:15:39;;;;;;;51.77;22.10;;;19.80;99.90;;;;;;5019097;28;20533;-73
2023/10/03 00:18:05;;;;;;;47.20;21.77;;;19.40;99.90;;;;;;5053433;28;20420;-73
2023/10/03 00:20:31;;;;;;;49.93;22.13;;;19.00;99.90;;;;;;5053376;28;20422;-73
2023/10/03 00:22:57;;;;;;;45.80;21.13;;;18.80;99.90;;;;;;5053462;28;20184;-73
2023/10/03 00:25:24;;;;;;;46.20;21.00;;;18.70;99.90;;;;;;5053235;28;20211;-73
2023/10/03 00:27:59;;;;;;;47.77;21.00;;;18.50;99.90;;;;;;5052011;28;20184;-73
2023/10/03 00:30:25;;;;;;;46.83;19.33;;;18.40;99.90;;;;;;5053206;28;20824;-73
2023/10/03 00:32:52;;;;;;;39.07;17.20;;;18.40;99.90;;;;;;5051808;28;20437;-73
2023/10/03 00:35:20;;;;;;;50.63;23.13;;;18.50;99.90;;;;;;5053033;28;20439;-73
2023/10/03 00:37:51;;;;;;;43.83;20.00;;;18.40;99.90;;;;;;5053066;28;20859;-73
2023/10/03 00:40:27;;;;;;;52.43;23.57;;;18.20;99.90;;;;;;5053097;28;20499;-73
2023/10/03 00:42:58;;;;;;;47.10;20.23;;;17.90;99.90;;;;;;5052995;28;20761;-73
2023/10/03 00:45:26;;;;;;;47.80;19.07;;;17.80;99.90;;;;;;5052798;28;20441;-73
2023/10/03 00:47:53;;;;;;;49.27;22.43;;;17.70;99.90;;;;;;5051509;28;20521;-72
2023/10/03 00:50:20;;;;;;;52.10;22.50;;;17.50;99.90;;;;;;5052784;28;20956;-73
2023/10/03 00:52:56;;;;;;;49.50;21.87;;;17.40;99.90;;;;;;5052722;28;20412;-73
2023/10/03 00:55:29;;;;;;;48.53;21.00;;;17.30;99.90;;;;;;5052720;28;20492;-73
2023/10/03 01:00:42;;;;;;;28.90;14.23;;;17.30;99.90;;;;;;5052724;28;20927;-73
2023/10/03 01:03:31;;;;;;;31.53;15.20;;;17.80;99.90;;;;;;5052661;28;20429;-73
2023/10/03 01:06:04;;;;;;;33.93;14.73;;;18.50;99.90;;;;;;5051139;28;20453;-73
2023/10/03 01:08:30;;;;;;;44.30;16.53;;;18.90;99.90;;;;;;5052152;28;20787;-73
2023/10/03 01:10:58;;;;;;;30.90;14.03;;;19.30;99.90;;;;;;5052423;28;20462;-73
2023/10/03 01:13:24;;;;;;;28.13;13.67;;;19.50;99.90;;;;;;5051040;28;20433;-73
2023/10/03 01:15:52;;;;;;;33.80;13.93;;;19.80;99.90;;;;;;5052229;28;20495;-72
2023/10/03 01:18:20;;;;;;;35.43;12.47;;;19.90;99.90;;;;;;5052252;28;20421;-72
2023/10/03 01:20:50;;;;;;;30.07;14.07;;;20.00;99.90;;;;;;5052191;28;20900;-73
2023/10/03 01:23:16;;;;;;;32.73;13.97;;;20.00;99.90;;;;;;5050889;28;20442;-73
2023/10/03 01:25:43;;;;;;;29.37;13.13;;;20.10;99.90;;;;;;5052169;28;20489;-73
2023/10/03 01:28:13;;;;;;;24.90;13.13;;;20.10;99.90;;;;;;5050892;28;20955;-73
2023/10/03 01:30:40;;;;;;;29.97;13.13;;;20.10;99.90;;;;;;5051881;28;20469;-74
2023/10/03 01:33:11;;;;;;;33.57;15.53;;;20.20;99.90;;;;;;5050644;28;20923;-73
2023/10/03 01:35:37;;;;;;;27.83;12.07;;;20.20;99.90;;;;;;5050911;28;20945;-73
2023/10/03 01:38:04;;;;;;;26.93;12.20;;;20.20;99.90;;;;;;5051995;28;20436;-73
2023/10/03 01:40:30;;;;;;;26.97;12.00;;;20.30;99.90;;;;;;5051963;28;20415;-73
2023/10/03 01:42:56;;;;;;;26.90;12.90;;;20.20;99.90;;;;;;5050505;28;20426;-74
2023/10/03 01:45:27;;;;;;;29.70;12.60;;;20.20;99.90;;;;;;5051785;28;21010;-73
2023/10/03 01:47:58;;;;;;;26.90;12.10;;;20.30;99.90;;;;;;5051881;28;20196;-74
2023/10/03 01:50:25;;;;;;;29.97;11.97;;;20.40;99.90;;;;;;5050613;28;20460;-74
2023/10/03 01:52:51;;;;;;;21.63;11.90;;;20.30;99.90;;;;;;5051731;28;20422;-73
2023/10/03 01:55:17;;;;;;;22.53;10.90;;;20.50;99.90;;;;;;5051963;28;20442;-73
2023/10/03 01:57:47;;;;;;;24.77;11.07;;;20.60;98.90;;;;;;5051399;28;20961;-74
2023/10/03 02:00:24;;;;;;;22.97;11.60;;;20.50;99.90;;;;;;5050270;28;20426;-73
2023/10/03 02:02:54;;;;;;;22.63;10.30;;;20.30;99.90;;;;;;5050278;28;20463;-73
2023/10/03 02:05:22;;;;;;;20.43;9.40;;;20.20;99.90;;;;;;5051442;28;20473;-73
2023/10/03 02:07:48;;;;;;;20.53;9.90;;;20.20;98.80;;;;;;5050211;28;20426;-73
2023/10/03 02:10:14;;;;;;;18.13;8.70;;;20.30;98.90;;;;;;5051312;28;20528;-73
2023/10/03 02:12:49;;;;;;;18.17;9.90;;;20.40;97.40;;;;;;5051306;28;20825;-73
2023/10/03 02:15:23;;;;;;;18.70;9.00;;;20.50;97.20;;;;;;5049980;28;20965;-73
2023/10/03 02:17:53;;;;;;;20.53;9.50;;;20.40;96.40;;;;;;5051316;28;20428;-73
2023/10/03 02:20:25;;;;;;;17.23;8.40;;;20.40;95.70;;;;;;5050693;28;20419;-73
2023/10/03 02:22:54;;;;;;;14.60;8.10;;;20.50;95.40;;;;;;5051278;28;20422;-73
2023/10/03 02:25:22;;;;;;;16.87;8.73;;;20.50;94.60;;;;;;5051188;28;20884;-73
2023/10/03 02:27:49;;;;;;;17.40;8.10;;;20.60;94.10;;;;;;5050097;28;20459;-73
2023/10/03 02:30:19;;;;;;;13.97;8.27;;;20.70;93.80;;;;;;5051111;28;20458;-73
2023/10/03 02:32:45;;;;;;;16.40;7.97;;;20.70;93.80;;;;;;5051200;28;20896;-73
2023/10/03 02:35:13;;;;;;;16.00;7.90;;;20.60;94.00;;;;;;5051166;28;20457;-73
2023/10/03 02:37:39;;;;;;;18.57;8.43;;;20.50;94.50;;;;;;5051138;28;20208;-73
2023/10/03 02:40:07;;;;;;;14.87;8.40;;;20.40;94.10;;;;;;5049917;28;20454;-73
2023/10/03 02:42:38;;;;;;;14.23;7.30;;;20.30;94.40;;;;;;5051073;28;20266;-73
2023/10/03 02:45:05;;;;;;;16.37;7.20;;;20.30;94.40;;;;;;5050996;28;20449;-73
2023/10/03 02:47:31;;;;;;;14.33;7.30;;;20.40;93.60;;;;;;5051069;28;20418;-73
2023/10/03 02:49:58;;;;;;;15.53;8.10;;;20.40;95.90;;;;;;5050916;28;20543;-73
2023/10/03 02:52:25;;;;;;;17.73;8.07;;;20.40;93.00;;;;;;5050906;28;20434;-73
2023/10/03 02:54:51;;;;;;;14.13;7.53;;;20.50;93.10;;;;;;5051097;28;20484;-73
2023/10/03 02:57:18;;;;;;;10.97;6.27;;;20.70;92.30;;;;;;5050896;28;20980;-73
2023/10/03 02:59:44;;;;;;;12.20;7.37;;;20.70;92.40;;;;;;5050941;28;20429;-73
2023/10/03 03:02:14;;;;;;;12.77;6.77;;;20.70;92.30;;;;;;5050897;28;20426;-73
2023/10/03 03:04:43;;;;;;;14.87;7.20;;;20.60;92.00;;;;;;5049591;28;20936;-73
2023/10/03 03:07:10;;;;;;;15.33;7.70;;;20.50;92.40;;;;;;5050848;28;20426;-74
2023/10/03 03:09:36;;;;;;;23.07;8.10;;;20.40;92.50;;;;;;5049390;28;20462;-73
2023/10/03 03:12:06;;;;;;;12.07;7.13;;;20.40;92.40;;;;;;5050831;28;20422;-73
2023/10/03 03:14:32;;;;;;;13.13;7.47;;;20.30;93.10;;;;;;5049315;28;20494;-73
2023/10/03 03:16:57;;;;;;;13.80;7.40;;;20.30;92.80;;;;;;5049531;28;20414;-73
2023/10/03 03:19:26;;;;;;;16.30;7.30;;;20.30;95.30;;;;;;5050706;28;20918;-73
2023/10/03 03:21:55;;;;;;;11.70;6.80;;;20.30;95.10;;;;;;5049378;28;20548;-73
2023/10/03 03:24:33;;;;;;;14.53;7.63;;;20.30;95.40;;;;;;5050741;28;20530;-73
2023/10/03 03:26:59;;;;;;;16.23;7.73;;;20.30;94.90;;;;;;5050724;28;20429;-74
2023/10/03 03:29:35;;;;;;;15.97;8.20;;;20.20;94.80;;;;;;5050565;28;20410;-73
2023/10/03 03:32:02;;;;;;;16.43;8.23;;;20.10;93.50;;;;;;5050321;28;20520;-73
2023/10/03 03:34:29;;;;;;;15.63;8.33;;;20.00;93.80;;;;;;5054266;28;20433;-73
2023/10/03 03:36:55;;;;;;;17.90;7.70;;;20.10;93.90;;;;;;5054241;28;20419;-73
2023/10/03 03:39:21;;;;;;;20.17;9.53;;;20.10;94.40;;;;;;5052895;28;20441;-73
2023/10/03 03:41:48;;;;;;;19.20;8.53;;;20.10;94.90;;;;;;5052940;28;20418;-74
2023/10/03 03:44:14;;;;;;;16.50;8.50;;;20.10;94.70;;;;;;5054098;28;20179;-72
2023/10/03 03:46:43;;;;;;;23.80;9.33;;;20.10;95.40;;;;;;5054060;28;20414;-74
2023/10/03 03:49:09;;;;;;;14.77;7.47;;;20.10;94.60;;;;;;5054068;28;20189;-73
2023/10/03 03:51:36;;;;;;;16.93;8.67;;;20.20;94.80;;;;;;5052579;28;20476;-73
2023/10/03 03:54:05;;;;;;;15.50;7.90;;;20.20;95.20;;;;;;5053951;28;20409;-73
2023/10/03 03:56:33;;;;;;;16.07;8.00;;;20.20;95.00;;;;;;5053721;28;20457;-73
2023/10/03 03:58:58;;;;;;;15.47;8.30;;;20.20;94.40;;;;;;5053887;28;20924;-73
2023/10/03 04:01:24;;;;;;;22.80;8.03;;;20.20;94.50;;;;;;5052492;28;20433;-74
2023/10/03 04:03:50;;;;;;;15.70;7.53;;;20.30;94.20;;;;;;5053738;28;20697;-73
2023/10/03 04:06:16;;;;;;;17.03;8.07;;;20.30;94.00;;;;;;5053607;28;20290;-73
2023/10/03 04:08:42;;;;;;;18.37;8.43;;;20.50;93.30;;;;;;5053621;28;20190;-73
2023/10/03 04:11:08;;;;;;;14.90;7.80;;;20.50;94.10;;;;;;5053497;28;20217;-73
2023/10/03 04:13:55;;;;;;;16.37;8.03;;;20.50;93.60;;;;;;5053550;28;20419;-74
2023/10/03 04:16:22;;;;;;;20.43;8.13;;;20.60;93.80;;;;;;5053357;28;20445;-73
2023/10/03 04:18:51;;;;;;;14.80;7.43;;;20.60;93.10;;;;;;5052071;28;20423;-74
2023/10/03 04:21:19;;;;;;;16.57;8.20;;;20.60;93.20;;;;;;5053482;28;20414;-73
2023/10/03 04:23:44;;;;;;;16.30;8.17;;;20.70;93.40;;;;;;5053391;28;20422;-74
2023/10/03 04:26:10;;;;;;;12.00;6.40;;;20.70;92.80;;;;;;5053247;28;20439;-74
2023/10/03 04:28:38;;;;;;;15.90;8.57;;;20.90;92.20;;;;;;5053229;28;20229;-74
2023/10/03 04:31:04;;;;;;;13.30;7.33;;;20.90;92.20;;;;;;5051725;28;20561;-74
2023/10/03 04:33:29;;;;;;;12.17;6.23;;;21.00;92.10;;;;;;5053422;28;20551;-74
2023/10/03 04:35:56;;;;;;;19.73;7.90;;;21.00;91.90;;;;;;5053108;28;20477;-74
2023/10/03 04:38:22;;;;;;;15.07;7.73;;;21.00;92.00;;;;;;5053081;28;20183;-72
2023/10/03 04:40:48;;;;;;;16.93;8.20;;;21.10;92.00;;;;;;5053004;28;20449;-74
2023/10/03 04:43:14;;;;;;;15.50;7.90;;;21.10;92.10;;;;;;5051427;28;20213;-74
2023/10/03 04:45:46;;;;;;;15.60;7.83;;;21.10;93.20;;;;;;5052694;28;20281;-74
2023/10/03 04:48:12;;;;;;;15.57;7.27;;;21.30;93.10;;;;;;5051721;28;20422;-74
2023/10/03 04:50:39;;;;;;;15.47;8.03;;;21.30;93.50;;;;;;5051503;28;20577;-73
2023/10/03 04:53:09;;;;;;;17.37;8.97;;;21.30;93.40;;;;;;5052797;28;20502;-73
2023/10/03 04:55:35;;;;;;;12.87;6.90;;;21.20;94.00;;;;;;5052538;28;20491;-73
2023/10/03 04:58:00;;;;;;;11.50;6.30;;;21.20;93.10;;;;;;5052743;28;20429;-73
2023/10/03 05:00:26;;;;;;;15.53;6.80;;;21.20;92.30;;;;;;5052613;28;20636;-74
2023/10/03 05:02:53;;;;;;;19.00;7.40;;;21.20;94.40;;;;;;5051449;28;20183;-73
2023/10/03 05:05:22;;;;;;;11.93;7.27;;;21.20;94.90;;;;;;5051242;28;20993;-74
2023/10/03 05:07:56;;;;;;;14.70;7.40;;;21.10;93.80;;;;;;5052522;28;20498;-73
2023/10/03 05:10:44;;;;;;;15.70;7.20;;;21.20;93.80;;;;;;5052639;28;20810;-73
2023/10/03 05:13:10;;;;;;;17.57;7.87;;;21.20;91.90;;;;;;5052279;28;20821;-73
2023/10/03 05:15:35;;;;;;;12.80;6.90;;;21.30;92.20;;;;;;5034689;28;20888;-73
2023/10/03 05:18:03;;;;;;;18.70;7.43;;;21.40;94.60;;;;;;5051192;28;20438;-73
2023/10/03 05:20:49;;;;;;;11.90;6.63;;;21.40;94.50;;;;;;5050852;28;20192;-74
2023/10/03 05:23:15;;;;;;;14.40;7.50;;;21.40;94.30;;;;;;5052157;28;20523;-73
2023/10/03 05:25:43;;;;;;;32.47;8.20;;;21.30;93.90;;;;;;5050878;28;20951;-73
2023/10/03 05:28:11;;;;;;;13.17;6.00;;;21.40;93.50;;;;;;5052241;28;20430;-73
2023/10/03 05:30:38;;;;;;;11.57;6.73;;;21.40;94.40;;;;;;5052050;28;20466;-73
2023/10/03 05:33:06;;;;;;;12.33;6.60;;;21.40;93.90;;;;;;5052125;28;20448;-74
2023/10/03 05:35:32;;;;;;;13.03;7.03;;;21.30;94.20;;;;;;5051946;28;20439;-74
2023/10/03 05:37:57;;;;;;;11.07;6.37;;;21.30;90.50;;;;;;5052026;28;20422;-74
2023/10/03 05:40:23;;;;;;;10.17;6.03;;;21.30;91.60;;;;;;5050768;28;20450;-73
2023/10/03 05:42:49;;;;;;;13.03;6.80;;;21.30;93.10;;;;;;5050702;28;20271;-73
2023/10/03 05:45:15;;;;;;;13.53;7.27;;;21.20;92.20;;;;;;5051825;28;20727;-73
2023/10/03 05:47:45;;;;;;;14.17;6.07;;;21.30;92.40;;;;;;5050426;28;20266;-73
2023/10/03 05:50:21;;;;;;;12.63;6.63;;;21.20;92.10;;;;;;5050703;28;20478;-73
2023/10/03 05:52:48;;;;;;;11.50;5.90;;;21.20;92.00;;;;;;5050483;28;20434;-73
2023/10/03 05:55:14;;;;;;;9.53;5.67;;;21.20;92.10;;;;;;5050836;28;20534;-73
2023/10/03 05:57:42;;;;;;;12.67;6.73;;;21.20;90.40;;;;;;5051536;28;20464;-74
2023/10/03 06:00:16;;;;;;;15.10;7.40;;;21.20;91.90;;;;;;5050280;28;20427;-73
2023/10/03 06:02:43;;;;;;;12.20;6.60;;;21.10;91.20;;;;;;5051633;28;20505;-73
2023/10/03 06:05:09;;;;;;;12.20;6.53;;;21.10;91.30;;;;;;5050094;28;20489;-73
2023/10/03 06:07:38;;;;;;;10.33;5.93;;;21.20;91.40;;;;;;5051615;28;20963;-74
2023/10/03 06:10:04;;;;;;;10.40;6.00;;;21.20;90.80;;;;;;5051422;28;20462;-74
2023/10/03 06:12:33;;;;;;;9.03;5.63;;;21.30;91.30;;;;;;5050102;28;20423;-74
2023/10/03 06:14:59;;;;;;;10.90;7.07;;;21.40;91.20;;;;;;5050065;28;20438;-74
2023/10/03 06:17:24;;;;;;;12.67;5.90;;;21.50;90.30;;;;;;5051456;28;20799;-74
2023/10/03 06:19:53;;;;;;;13.00;5.27;;;21.60;89.40;;;;;;5033400;28;20425;-74
2023/10/03 06:22:18;;;;;;;10.83;5.83;;;21.80;87.40;;;;;;5051385;28;20183;-74
2023/10/03 06:24:45;;;;;;;12.27;6.80;;;21.90;88.90;;;;;;5051281;28;20445;-74
2023/10/03 06:27:11;;;;;;;11.80;6.93;;;21.90;87.80;;;;;;5049976;28;20197;-74
2023/10/03 06:29:40;;;;;;;16.30;6.40;;;22.00;88.70;;;;;;5051326;28;20426;-74
2023/10/03 06:32:05;;;;;;;10.57;6.20;;;21.90;88.70;;;;;;5051309;28;20194;-73
2023/10/03 06:34:31;;;;;;;9.53;5.80;;;21.90;88.10;;;;;;5051229;28;20447;-73
2023/10/03 06:36:56;;;;;;;9.27;5.33;;;22.10;90.00;;;;;;5051236;28;20662;-74
2023/10/03 06:39:22;;;;;;;11.20;6.10;;;22.10;89.80;;;;;;5049866;28;20658;-73
2023/10/03 06:41:48;;;;;;;9.03;5.07;;;22.10;88.80;;;;;;5051159;28;20183;-73
2023/10/03 06:44:14;;;;;;;12.17;6.53;;;22.20;90.00;;;;;;5033125;28;20196;-73
2023/10/03 06:46:42;;;;;;;12.60;6.73;;;22.10;90.20;;;;;;5051224;28;20176;-74
2023/10/03 06:49:10;;;;;;;9.13;5.57;;;22.10;90.50;;;;;;5049879;28;20908;-73
2023/10/03 06:51:36;;;;;;;11.47;6.20;;;22.10;90.70;;;;;;5049696;28;20825;-73
2023/10/03 06:54:03;;;;;;;12.60;6.60;;;22.20;88.60;;;;;;5051069;28;20429;-73
2023/10/03 06:56:32;;;;;;;12.00;6.13;;;22.20;89.10;;;;;;5016815;28;20462;-73
2023/10/03 06:58:59;;;;;;;12.73;5.33;;;22.20;90.10;;;;;;5051058;28;20499;-73
2023/10/03 07:01:24;;;;;;;9.27;5.67;;;22.20;90.20;;;;;;5050943;28;20427;-73
2023/10/03 07:03:52;;;;;;;14.23;5.20;;;22.20;90.70;;;;;;5034380;28;20947;-72
2023/10/03 07:06:18;;;;;;;13.03;7.00;;;22.30;89.70;;;;;;5051786;28;20255;-73
2023/10/03 07:08:43;;;;;;;10.17;5.97;;;22.30;90.20;;;;;;5038628;28;20430;-74
2023/10/03 07:11:12;;;;;;;10.37;5.63;;;22.30;88.60;;;;;;5053411;28;20206;-73
2023/10/03 07:13:39;;;;;;;12.33;5.33;;;22.40;87.20;;;;;;5054770;28;20425;-73
2023/10/03 07:16:04;;;;;;;8.90;5.60;;;22.50;86.90;;;;;;5054589;28;20440;-75
2023/10/03 07:18:31;;;;;;;11.20;6.13;;;22.50;87.30;;;;;;5054802;28;20435;-74
2023/10/03 07:20:56;;;;;;;9.30;5.53;;;22.50;86.90;;;;;;5054572;28;20183;-74
2023/10/03 07:23:23;;;;;;;10.07;5.37;;;22.60;88.10;;;;;;5054878;28;21021;-72
2023/10/03 07:25:49;;;;;;;15.23;6.10;;;22.60;88.90;;;;;;5054510;28;20231;-74
2023/10/03 07:28:14;;;;;;;8.70;5.13;;;22.60;88.40;;;;;;5054519;28;20457;-73
2023/10/03 07:30:41;;;;;;;11.73;5.37;;;22.60;88.20;;;;;;5054472;28;20812;-74
2023/10/03 07:33:08;;;;;;;9.57;5.67;;;22.70;89.30;;;;;;5054467;28;20553;-73
2023/10/03 07:35:37;;;;;;;12.03;5.97;;;22.80;88.50;;;;;;5053235;28;20473;-73
2023/10/03 07:38:03;;;;;;;11.73;5.80;;;22.80;89.00;;;;;;5053030;28;20537;-74
2023/10/03 07:40:29;;;;;;;11.90;5.83;;;23.00;87.30;;;;;;5054276;28;20426;-74
2023/10/03 07:43:02;;;;;;;8.53;5.00;;;23.00;87.90;;;;;;5052993;28;20424;-74
2023/10/03 07:45:27;;;;;;;10.43;5.70;;;23.10;88.20;;;;;;5052920;28;20210;-73
2023/10/03 07:47:53;;;;;;;7.67;5.17;;;23.20;89.40;;;;;;5052767;28;20435;-74
2023/10/03 07:50:18;;;;;;;13.20;5.47;;;23.20;88.40;;;;;;5054003;28;20300;-74
2023/10/03 07:52:44;;;;;;;16.50;5.70;;;23.20;88.40;;;;;;5054092;28;20173;-74
2023/10/03 07:55:11;;;;;;;9.53;5.67;;;23.20;88.30;;;;;;5052844;28;20226;-74
2023/10/03 07:57:37;;;;;;;13.37;6.70;;;23.30;88.20;;;;;;5053746;28;20204;-74
2023/10/03 08:00:07;;;;;;;11.57;5.87;;;23.40;88.60;;;;;;5052596;28;20431;-74
2023/10/03 08:02:32;;;;;;;10.70;6.17;;;23.40;87.30;;;;;;5052709;28;20427;-75
2023/10/03 08:05:02;;;;;;;13.23;6.40;;;23.50;88.60;;;;;;5053806;28;20445;-74
2023/10/03 08:07:28;;;;;;;15.53;6.30;;;23.60;89.30;;;;;;5052406;28;20193;-74
2023/10/03 08:09:54;;;;;;;11.57;6.20;;;23.70;87.40;;;;;;5035799;28;20479;-74
2023/10/03 08:12:26;;;;;;;10.20;5.40;;;23.80;88.20;;;;;;5053819;28;20421;-74
2023/10/03 08:14:53;;;;;;;11.23;6.73;;;23.90;86.70;;;;;;5052363;28;20954;-73
2023/10/03 08:17:26;;;;;;;10.13;5.67;;;24.00;89.20;;;;;;5035808;28;20445;-74
2023/10/03 08:19:52;;;;;;;14.60;6.60;;;24.00;88.90;;;;;;5052479;28;20429;-73
2023/10/03 08:22:20;;;;;;;13.20;5.97;;;24.00;90.00;;;;;;5053460;28;20437;-73
2023/10/03 08:24:46;;;;;;;9.83;6.23;;;24.10;88.30;;;;;;5052145;28;20441;-73
2023/10/03 08:27:19;;;;;;;11.90;5.60;;;24.20;87.70;;;;;;5053433;28;20480;-73
2023/10/03 08:29:53;;;;;;;10.83;5.83;;;24.40;90.30;;;;;;5051917;28;20439;-74
2023/10/03 08:32:19;;;;;;;11.10;5.73;;;24.50;90.00;;;;;;5052202;28;20471;-74
2023/10/03 08:34:45;;;;;;;10.07;5.37;;;24.60;90.40;;;;;;5051770;28;20448;-74
2023/10/03 08:37:24;;;;;;;14.20;7.47;;;24.70;88.90;;;;;;5053361;28;20554;-75
2023/10/03 08:39:51;;;;;;;8.90;5.70;;;24.70;89.10;;;;;;5053252;28;20182;-74
2023/10/03 08:42:35;;;;;;;11.00;6.67;;;24.90;89.50;;;;;;5052990;28;20413;-74
2023/10/03 08:45:22;;;;;;;16.13;6.53;;;25.10;88.40;;;;;;5052969;28;20438;-75
2023/10/03 08:47:50;;;;;;;11.37;5.93;;;25.10;87.80;;;;;;5052973;28;20787;-74
2023/10/03 08:50:35;;;;;;;13.90;6.70;;;25.20;87.50;;;;;;5052652;28;20530;-75
2023/10/03 08:53:15;;;;;;;8.60;5.43;;;25.30;89.10;;;;;;5051565;28;20426;-74
2023/10/03 08:55:45;;;;;;;8.33;5.47;;;25.30;86.70;;;;;;5052714;28;20441;-74
2023/10/03 08:58:13;;;;;;;10.70;5.60;;;25.40;86.10;;;;;;5052901;28;20469;-75
2023/10/03 09:00:44;;;;;;;12.17;5.30;;;25.50;86.70;;;;;;5052781;28;20450;-75
2023/10/03 09:03:12;;;;;;;10.83;5.90;;;25.80;87.50;;;;;;5053243;28;20409;-75
2023/10/03 09:05:40;;;;;;;9.67;5.10;;;26.00;85.30;;;;;;5052598;28;20468;-74
2023/10/03 09:08:13;;;;;;;15.27;5.50;;;26.20;83.70;;;;;;5034874;28;20931;-74
2023/10/03 09:10:55;;;;;;;11.07;5.23;;;26.40;85.40;;;;;;5052545;28;20461;-74
2023/10/03 09:13:28;;;;;;;9.03;4.87;;;26.70;85.30;;;;;;5051127;28;20429;-74
2023/10/03 09:16:14;;;;;;;15.57;5.17;;;27.40;84.70;;;;;;5052680;28;20495;-74
2023/10/03 09:18:41;;;;;;;15.00;4.80;;;27.40;83.20;;;;;;5051111;28;20475;-74
2023/10/03 09:21:15;;;;;;;14.50;5.17;;;28.00;82.20;;;;;;5052344;28;20453;-74
2023/10/03 09:24:12;;;;;;;9.97;5.17;;;27.90;79.00;;;;;;5052351;28;20481;-74
2023/10/03 09:26:47;;;;;;;11.60;4.77;;;27.70;80.00;;;;;;5052176;28;20792;-74
2023/10/03 09:29:29;;;;;;;6.70;4.87;;;27.80;78.80;;;;;;5052102;28;20417;-74
2023/10/03 09:31:59;;;;;;;6.90;5.10;;;28.30;82.90;;;;;;5052209;28;20960;-74
2023/10/03 09:34:32;;;;;;;8.77;4.73;;;28.60;78.60;;;;;;5051869;28;20473;-74
2023/10/03 09:37:04;;;;;;;8.73;4.53;;;29.30;78.30;;;;;;5052032;28;20979;-75
2023/10/03 09:39:30;;;;;;;6.50;4.63;;;29.50;75.90;;;;;;5050901;28;20430;-75
2023/10/03 09:41:57;;;;;;;11.93;4.63;;;29.70;75.30;;;;;;5052214;28;20449;-75
2023/10/03 09:44:29;;;;;;;9.90;5.60;;;30.30;79.10;;;;;;5051826;28;20962;-75
2023/10/03 09:47:06;;;;;;;8.80;5.13;;;30.60;77.50;;;;;;5050663;28;20452;-74
2023/10/03 09:49:38;;;;;;;14.40;5.07;;;30.50;77.30;;;;;;5051743;28;20545;-74
2023/10/03 09:52:09;;;;;;;8.37;5.17;;;30.50;74.50;;;;;;5051803;28;20912;-75
2023/10/03 09:54:39;;;;;;;7.37;5.30;;;30.40;76.40;;;;;;5051598;28;20445;-74
2023/10/03 09:57:16;;;;;;;10.70;4.70;;;30.30;72.70;;;;;;5051600;28;20468;-75
2023/10/03 09:59:45;;;;;;;8.87;4.77;;;30.30;71.60;;;;;;5050480;28;20415;-75
2023/10/03 10:02:12;;;;;;;8.73;5.53;;;30.70;72.70;;;;;;5051658;28;20409;-74
2023/10/03 10:04:39;;;;;;;9.73;5.27;;;31.30;73.70;;;;;;5051639;28;20784;-74
2023/10/03 10:07:33;;;;;;;6.63;4.40;;;31.30;73.50;;;;;;5051473;28;20503;-75
2023/10/03 10:10:13;;;;;;;8.00;4.37;;;30.80;73.60;;;;;;5051408;28;20458;-73
2023/10/03 10:13:12;;;;;;;10.63;5.10;;;31.20;71.10;;;;;;5051543;28;20411;-75
2023/10/03 10:16:20;;;;;;;8.07;5.73;;;31.40;72.10;;;;;;5051313;28;20448;-76
2023/10/03 10:18:45;;;;;;;8.50;4.77;;;31.40;74.00;;;;;;5050034;28;20418;-75
2023/10/03 10:21:23;;;;;;;10.07;5.87;;;31.10;71.50;;;;;;5051317;28;20445;-75
2023/10/03 10:24:20;;;;;;;11.13;5.40;;;30.90;71.30;;;;;;5051352;28;20205;-74
2023/10/03 10:26:54;;;;;;;8.57;5.40;;;30.80;70.00;;;;;;5051262;28;21000;-74
2023/10/03 10:29:22;;;;;;;8.07;5.27;;;31.30;71.90;;;;;;5051264;28;20420;-74
2023/10/03 10:32:07;;;;;;;8.37;5.47;;;31.70;71.00;;;;;;5051193;28;20465;-74
2023/10/03 10:34:35;;;;;;;8.17;5.40;;;32.00;71.00;;;;;;5050155;28;20436;-74
2023/10/03 10:37:15;;;;;;;6.50;4.80;;;32.00;73.50;;;;;;5051155;28;20426;-75
2023/10/03 10:40:10;;;;;;;9.53;5.27;;;32.00;72.00;;;;;;5051319;28;20914;-75
2023/10/03 10:43:06;;;;;;;8.73;4.63;;;32.20;70.90;;;;;;5053281;28;20401;-75
2023/10/03 10:45:38;;;;;;;11.20;4.67;;;31.70;69.80;;;;;;5054728;28;20454;-75
2023/10/03 10:48:05;;;;;;;8.63;5.53;;;32.10;69.80;;;;;;5055308;28;20409;-75
2023/10/03 10:51:03;;;;;;;13.20;5.77;;;32.20;70.60;;;;;;5055167;28;20465;-75
2023/10/03 10:53:43;;;;;;;8.60;5.07;;;31.40;66.50;;;;;;5055038;28;20800;-75
2023/10/03 10:56:10;;;;;;;6.00;4.67;;;31.60;69.50;;;;;;5053567;28;20492;-75
2023/10/03 10:58:50;;;;;;;8.67;4.40;;;31.80;69.30;;;;;;5055044;28;20426;-75
2023/10/03 11:01:20;;;;;;;11.73;4.67;;;31.50;69.20;;;;;;5055034;28;20452;-75
2023/10/03 11:03:47;;;;;;;10.10;5.37;;;31.20;70.00;;;;;;5053732;28;20437;-74
2023/10/03 11:06:23;;;;;;;6.17;4.30;;;31.10;67.70;;;;;;5054851;28;20446;-74
2023/10/03 11:08:50;;;;;;;8.03;5.00;;;31.00;72.00;;;;;;5054773;28;20915;-75
2023/10/03 11:11:17;;;;;;;6.07;4.70;;;30.90;68.40;;;;;;5054776;28;20471;-75
2023/10/03 11:13:50;;;;;;;7.10;4.50;;;31.10;67.50;;;;;;5054722;28;20866;-75
2023/10/03 11:16:27;;;;;;;12.30;5.17;;;31.00;68.70;;;;;;5054668;28;20461;-75
2023/10/03 11:18:54;;;;;;;6.87;4.67;;;30.80;67.00;;;;;;5054649;28;20539;-75
2023/10/03 11:21:21;;;;;;;6.27;4.70;;;30.60;68.80;;;;;;5054742;28;20505;-74
2023/10/03 11:24:13;;;;;;;12.90;4.73;;;30.10;65.80;;;;;;5053216;28;20883;-74
2023/10/03 11:26:43;;;;;;;10.03;4.97;;;29.90;66.70;;;;;;5054577;28;20908;-75
2023/10/03 11:29:09;;;;;;;9.90;5.47;;;29.60;67.10;;;;;;5053444;28;20796;-75
2023/10/03 11:31:39;;;;;;;7.10;4.70;;;29.30;65.60;;;;;;5053021;28;20454;-75
2023/10/03 11:34:06;;;;;;;13.17;6.20;;;29.10;64.00;;;;;;5054348;28;20502;-74
2023/10/03 11:36:44;;;;;;;9.30;5.50;;;28.80;64.30;;;;;;5054148;28;20493;-74
2023/10/03 11:39:18;;;;;;;12.70;5.43;;;29.00;65.40;;;;;;5054132;28;20493;-74
2023/10/03 11:41:44;;;;;;;12.40;5.90;;;29.00;66.20;;;;;;5054269;28;20790;-74
2023/10/03 11:44:20;;;;;;;22.10;5.70;;;29.00;65.60;;;;;;5054047;28;20965;-74
2023/10/03 11:46:47;;;;;;;7.97;5.33;;;29.10;67.60;;;;;;5054219;28;20426;-74
2023/10/03 11:49:15;;;;;;;11.03;5.50;;;29.10;71.30;;;;;;5054111;28;20831;-74
2023/10/03 11:51:45;;;;;;;8.60;5.80;;;29.00;73.40;;;;;;5053846;28;20569;-74
2023/10/03 11:54:13;;;;;;;12.60;5.37;;;29.20;69.60;;;;;;5053818;28;20893;-74
2023/10/03 11:56:47;;;;;;;8.13;5.77;;;29.20;71.80;;;;;;5053751;28;20469;-75
2023/10/03 11:59:14;;;;;;;13.17;5.40;;;28.90;68.70;;;;;;5052554;28;20521;-74
2023/10/03 12:01:49;;;;;;;12.67;6.30;;;28.50;68.80;;;;;;5053772;28;21000;-74
2023/10/03 12:04:15;;;;;;;12.73;5.53;;;28.40;69.10;;;;;;5052558;28;20436;-74
2023/10/03 12:06:41;;;;;;;11.87;5.70;;;28.10;69.80;;;;;;5053750;28;20889;-74
2023/10/03 12:09:09;;;;;;;10.33;5.83;;;27.90;72.30;;;;;;5052397;28;20465;-74
2023/10/03 12:11:36;;;;;;;9.93;6.07;;;27.70;73.00;;;;;;5053516;28;20976;-74
2023/10/03 12:14:02;;;;;;;16.50;5.70;;;27.50;74.80;;;;;;5053650;28;20418;-75
2023/10/03 12:16:28;;;;;;;11.30;5.80;;;27.50;75.30;;;;;;5052233;28;20488;-74
2023/10/03 12:18:54;;;;;;;8.50;5.50;;;27.40;75.40;;;;;;5053473;28;20430;-74
2023/10/03 12:21:19;;;;;;;7.50;5.33;;;27.10;76.10;;;;;;5053460;28;20476;-74
2023/10/03 12:23:45;;;;;;;10.10;5.63;;;27.00;75.10;;;;;;5053384;28;20249;-74
2023/10/03 12:26:11;;;;;;;13.57;6.30;;;26.90;78.60;;;;;;5052067;28;20755;-74
2023/10/03 12:28:37;;;;;;;12.20;5.30;;;26.80;77.10;;;;;;5053346;28;20561;-74
2023/10/03 12:31:05;;;;;;;14.70;6.23;;;26.80;79.60;;;;;;5053243;28;20465;-74
2023/10/03 12:33:31;;;;;;;14.63;6.20;;;26.70;80.10;;;;;;5053186;28;20262;-74
2023/10/03 12:36:00;;;;;;;12.10;5.57;;;26.70;79.70;;;;;;5053183;28;20468;-74
2023/10/03 12:38:26;;;;;;;11.90;6.27;;;26.70;78.80;;;;;;5053178;28;20425;-75
2023/10/03 12:40:52;;;;;;;7.83;5.40;;;26.90;78.30;;;;;;5052276;28;20498;-74
2023/10/03 12:43:18;;;;;;;14.40;6.27;;;27.10;80.40;;;;;;5055577;28;20946;-73
2023/10/03 12:45:44;;;;;;;11.03;5.70;;;27.30;81.80;;;;;;5053367;28;20216;-72
2023/10/03 12:48:10;;;;;;;8.00;5.57;;;27.50;82.90;;;;;;5053274;28;20680;-73
2023/10/03 12:50:36;;;;;;;11.33;5.77;;;27.50;85.60;;;;;;5051830;28;20226;-74
2023/10/03 12:53:02;;;;;;;7.07;5.20;;;27.60;85.30;;;;;;5051567;28;20242;-73